Terminal Aerodrome Forecast
Issued by NWS Wilmington, OH

Current Version | Previous Version | Graphics & Text | Print | Product List | Glossary On
Versions: 1 2 3 4 5 6 7 8 9 10 11 12 13 14 15 16 17 18 19 20 21 22 23 24 25 26 27
000
FTUS41 KILN 241500 AAC
TAFCVG
TAF AMD
KCVG 241500Z 2415/2518 05004KT 6SM HZ FEW011
     FM241600 04008KT P6SM SCT025
     FM250200 05004KT P6SM FEW030 SCT250
     FM251500 02006KT P6SM FEW035 SCT050=

USA.gov is the U.S. government's official web portal to all federal, state and local government web resources and services.